createdAt,value
2019-02-17T00:02:13.835Z,6.78
2019-02-17T00:04:43.496Z,3.92
2019-02-17T00:07:13.176Z,5.70
2019-02-17T00:09:42.832Z,5.72
2019-02-17T00:12:12.508Z,4.10
2019-02-17T00:14:42.197Z,6.25
2019-02-17T00:17:11.933Z,4.33
2019-02-17T00:19:41.617Z,5.17
2019-02-17T00:22:11.421Z,7.95
2019-02-17T00:24:41.111Z,4.62
2019-02-17T00:27:10.848Z,7.28
2019-02-17T00:29:40.534Z,5.40
2019-02-17T00:32:10.295Z,5.20
2019-02-17T00:34:40.121Z,5.97
2019-02-17T00:37:09.830Z,4.00
2019-02-17T00:39:39.599Z,5.47
2019-02-17T00:42:09.356Z,5.75
2019-02-17T00:44:39.016Z,5.97
2019-02-17T00:47:08.705Z,4.35
2019-02-17T00:49:38.464Z,4.62
2019-02-17T00:52:09.204Z,5.83
2019-02-17T00:54:40.031Z,3.15
2019-02-17T00:57:09.691Z,3.47
2019-02-17T00:59:39.373Z,5.42
2019-02-17T01:02:09.059Z,5.62
2019-02-17T01:04:38.735Z,4.20
2019-02-17T01:07:08.421Z,7.50
2019-02-17T01:09:38.089Z,4.10
2019-02-17T01:12:07.770Z,3.85
2019-02-17T01:14:37.428Z,4.60
2019-02-17T01:17:07.185Z,4.28
2019-02-17T01:19:36.930Z,4.87
2019-02-17T01:22:06.777Z,5.65
2019-02-17T01:24:36.440Z,4.95
2019-02-17T01:27:06.128Z,3.60
2019-02-17T01:29:35.885Z,5.12
2019-02-17T01:32:05.625Z,4.97
2019-02-17T01:34:35.309Z,4.17
2019-02-17T01:37:04.971Z,3.58
2019-02-17T01:39:34.655Z,5.40
2019-02-17T01:42:04.439Z,4.33
2019-02-17T01:44:34.189Z,4.28
2019-02-17T01:47:03.947Z,3.50
2019-02-17T01:49:33.603Z,5.12
2019-02-17T01:52:03.356Z,3.85
2019-02-17T01:54:33.116Z,4.62
2019-02-17T01:57:02.850Z,4.40
2019-02-17T01:59:33.598Z,4.08
2019-02-17T02:02:03.334Z,3.85
2019-02-17T02:04:33.156Z,3.95
2019-02-17T02:07:02.812Z,4.92
2019-02-17T02:09:32.568Z,6.33
2019-02-17T02:12:02.247Z,3.98
2019-02-17T02:14:31.918Z,3.45
2019-02-17T02:17:01.598Z,5.33
2019-02-17T02:19:31.264Z,5.67
2019-02-17T02:22:01.022Z,2.80
2019-02-17T02:24:30.761Z,5.33
2019-02-17T02:27:00.526Z,3.47
2019-02-17T02:29:40.423Z,3.58
2019-02-17T02:32:01.979Z,4.25
2019-02-17T02:34:31.737Z,3.80
2019-02-17T02:37:01.409Z,4.33
2019-02-17T02:39:31.165Z,4.17
2019-02-17T02:42:00.910Z,4.12
2019-02-17T02:44:30.666Z,3.52
2019-02-17T02:47:00.400Z,3.58
2019-02-17T02:49:31.053Z,4.70
2019-02-17T02:52:00.716Z,4.55
2019-02-17T02:54:30.512Z,4.10
2019-02-17T02:57:00.338Z,4.65
2019-02-17T02:59:30.100Z,4.33
2019-02-17T03:01:59.766Z,5.05
2019-02-17T03:04:29.520Z,3.42
2019-02-17T03:07:00.195Z,5.15
2019-02-17T03:09:29.860Z,4.62
2019-02-17T03:11:59.551Z,4.12
2019-02-17T03:14:29.298Z,3.30
2019-02-17T03:17:00.770Z,4.50
2019-02-17T03:19:30.413Z,4.42
2019-02-17T03:22:00.098Z,7.30
2019-02-17T03:24:29.763Z,3.08
2019-02-17T03:26:59.515Z,5.37
2019-02-17T03:29:29.253Z,3.05
2019-02-17T03:31:58.995Z,4.42
2019-02-17T03:34:28.753Z,3.35
2019-02-17T03:36:58.488Z,3.72
2019-02-17T03:39:28.265Z,4.53
2019-02-17T03:41:57.925Z,3.85
2019-02-17T03:44:27.685Z,4.10
2019-02-17T03:46:57.349Z,3.37
2019-02-17T03:49:27.030Z,2.92
2019-02-17T03:51:56.688Z,3.45
2019-02-17T03:54:26.372Z,4.37
2019-02-17T03:56:56.056Z,2.72
2019-02-17T03:59:25.731Z,2.60
2019-02-17T04:01:55.397Z,4.42
2019-02-17T04:04:25.056Z,3.02
2019-02-17T04:06:54.736Z,3.60
2019-02-17T04:09:24.404Z,7.62
2019-02-17T04:11:54.156Z,3.15
2019-02-17T04:14:23.816Z,6.30
2019-02-17T04:16:53.504Z,4.53
2019-02-17T04:19:23.241Z,4.08
2019-02-17T04:21:52.991Z,3.30
2019-02-17T04:24:22.739Z,3.15
2019-02-17T04:26:52.424Z,3.30
2019-02-17T04:29:22.180Z,5.03
2019-02-17T04:31:51.842Z,4.67
2019-02-17T04:34:21.524Z,4.12
2019-02-17T04:36:51.184Z,4.10
2019-02-17T04:39:20.864Z,3.20
2019-02-17T04:41:50.531Z,3.08
2019-02-17T04:44:20.290Z,3.98
2019-02-17T04:46:50.107Z,3.83
2019-02-17T04:49:19.851Z,3.02
2019-02-17T04:51:49.522Z,3.08
2019-02-17T04:54:19.272Z,4.12
2019-02-17T04:56:48.950Z,3.67
2019-02-17T04:59:18.604Z,5.83
2019-02-17T05:01:48.365Z,3.92
2019-02-17T05:04:18.029Z,3.87
2019-02-17T05:06:47.787Z,2.37
2019-02-17T05:09:17.528Z,4.08
2019-02-17T05:11:47.277Z,3.50
2019-02-17T05:14:17.007Z,3.40
2019-02-17T05:16:46.697Z,4.55
2019-02-17T05:19:16.459Z,4.90
2019-02-17T05:21:46.122Z,3.37
2019-02-17T05:24:15.882Z,3.52
2019-02-17T05:26:45.617Z,2.75
2019-02-17T05:29:15.307Z,4.17
2019-02-17T05:31:45.046Z,4.72
2019-02-17T05:34:14.800Z,3.35
2019-02-17T05:36:44.533Z,2.58
2019-02-17T05:39:14.212Z,3.67
2019-02-17T05:41:43.899Z,5.55
2019-02-17T05:44:13.635Z,4.00
2019-02-17T05:46:44.367Z,2.87
2019-02-17T05:49:14.136Z,3.12
2019-02-17T05:51:43.864Z,4.15
2019-02-17T05:54:13.616Z,2.20
2019-02-17T05:56:43.301Z,3.08
2019-02-17T05:59:13.042Z,4.90
2019-02-17T06:01:42.791Z,2.27
2019-02-17T06:04:12.465Z,3.37
2019-02-17T06:06:42.269Z,4.10
2019-02-17T06:09:11.931Z,3.22
2019-02-17T06:11:41.688Z,2.27
2019-02-17T06:14:11.377Z,3.15
2019-02-17T06:16:41.064Z,3.40
2019-02-17T06:19:10.724Z,2.85
2019-02-17T06:21:40.403Z,6.90
2019-02-17T06:24:10.095Z,2.83
2019-02-17T06:26:39.827Z,2.45
2019-02-17T06:29:09.517Z,3.83
2019-02-17T06:31:39.271Z,2.62
2019-02-17T06:34:09.029Z,2.37
2019-02-17T06:36:40.829Z,2.47
2019-02-17T06:39:10.074Z,2.87
2019-02-17T06:41:39.737Z,3.77
2019-02-17T06:44:09.420Z,3.95
2019-02-17T06:46:40.751Z,5.40
2019-02-17T06:49:10.480Z,4.17
2019-02-17T06:51:40.169Z,2.42
2019-02-17T06:54:09.904Z,3.42
2019-02-17T06:56:47.210Z,2.80
2019-02-17T06:59:16.945Z,2.55
2019-02-17T07:01:46.710Z,3.45
2019-02-17T07:04:16.369Z,2.50
2019-02-17T07:06:47.759Z,2.87
2019-02-17T07:09:17.423Z,3.37
2019-02-17T07:11:47.208Z,2.15
2019-02-17T07:14:16.960Z,2.58
2019-02-17T07:16:46.624Z,2.10
2019-02-17T07:19:18.019Z,4.55
2019-02-17T07:21:47.684Z,4.33
2019-02-17T07:24:17.459Z,2.72
2019-02-17T07:26:47.212Z,2.42
2019-02-17T07:29:17.050Z,4.62
2019-02-17T07:31:46.808Z,4.55
2019-02-17T07:34:16.580Z,27.70
2019-02-17T07:36:46.390Z,18.52
2019-02-17T07:39:16.151Z,16.77
2019-02-17T07:41:45.838Z,9.53
2019-02-17T07:44:15.598Z,9.23
2019-02-17T07:46:45.268Z,8.98
2019-02-17T07:49:14.943Z,14.18
2019-02-17T07:51:44.685Z,9.40
2019-02-17T07:54:14.360Z,10.28
2019-02-17T07:56:44.131Z,11.50
2019-02-17T07:59:13.932Z,7.50
2019-02-17T08:01:45.571Z,9.00
2019-02-17T08:04:14.980Z,7.15
2019-02-17T08:06:44.666Z,7.62
2019-02-17T08:09:14.349Z,7.12
2019-02-17T08:11:44.089Z,4.53
2019-02-17T08:14:13.819Z,4.75
2019-02-17T08:16:43.503Z,5.75
2019-02-17T08:19:13.265Z,5.72
2019-02-17T08:21:42.928Z,5.75
2019-02-17T08:24:12.609Z,7.12
2019-02-17T08:26:42.297Z,14.35
2019-02-17T08:29:12.038Z,5.15
2019-02-17T08:31:42.693Z,4.35
2019-02-17T08:34:12.430Z,7.28
2019-02-17T08:36:42.125Z,6.62
2019-02-17T08:39:11.858Z,7.25
2019-02-17T08:41:41.617Z,4.37
2019-02-17T08:44:11.354Z,5.87
2019-02-17T08:46:41.120Z,6.03
2019-02-17T08:49:10.781Z,5.80
2019-02-17T08:51:40.470Z,5.90
2019-02-17T08:54:10.147Z,6.83
2019-02-17T08:56:39.900Z,6.10
2019-02-17T08:59:09.561Z,6.22
2019-02-17T09:01:40.489Z,7.37
2019-02-17T09:04:10.378Z,10.97
2019-02-17T09:06:41.085Z,7.05
2019-02-17T09:09:10.768Z,7.80
2019-02-17T09:11:40.431Z,5.20
2019-02-17T09:14:10.109Z,7.33
2019-02-17T09:16:39.768Z,4.60
2019-02-17T09:19:09.457Z,3.80
2019-02-17T09:21:39.196Z,7.70
2019-02-17T09:24:08.884Z,5.37
2019-02-17T09:26:38.718Z,5.75
2019-02-17T09:29:08.399Z,7.40
2019-02-17T09:31:38.246Z,6.08
2019-02-17T09:34:07.927Z,6.47
2019-02-17T09:36:37.655Z,6.90
2019-02-17T09:39:08.669Z,9.05
2019-02-17T09:41:38.515Z,4.40
2019-02-17T09:44:09.332Z,6.45
2019-02-17T09:46:39.025Z,3.92
2019-02-17T09:49:08.694Z,4.50
2019-02-17T09:51:38.449Z,4.03
2019-02-17T09:54:08.229Z,4.33
2019-02-17T09:56:37.995Z,4.92
2019-02-17T09:59:07.754Z,3.72
2019-02-17T10:01:37.420Z,4.55
2019-02-17T10:04:07.168Z,6.17
2019-02-17T10:06:36.825Z,3.52
2019-02-17T10:09:06.588Z,7.17
2019-02-17T10:11:36.423Z,6.25
2019-02-17T10:14:06.188Z,7.60
2019-02-17T10:16:35.924Z,3.12
2019-02-17T10:19:05.614Z,4.67
2019-02-17T10:21:35.364Z,7.70
2019-02-17T10:24:06.072Z,5.95
2019-02-17T10:26:35.764Z,4.25
2019-02-17T10:29:05.422Z,3.87
2019-02-17T10:31:35.099Z,8.23
2019-02-17T10:34:04.757Z,4.17
2019-02-17T10:36:34.496Z,5.53
2019-02-17T10:39:05.105Z,3.80
2019-02-17T10:41:34.772Z,5.92
2019-02-17T10:44:04.532Z,10.98
2019-02-17T10:46:34.280Z,3.52
2019-02-17T10:49:04.051Z,8.85
2019-02-17T10:51:33.808Z,13.20
2019-02-17T10:54:04.633Z,6.03
2019-02-17T10:56:34.300Z,22.62
2019-02-17T10:59:03.988Z,14.20
2019-02-17T11:01:33.673Z,16.02
2019-02-17T11:04:08.065Z,12.20
2019-02-17T11:06:37.827Z,12.10
2019-02-17T11:09:09.275Z,17.92
2019-02-17T11:11:39.033Z,10.28
2019-02-17T11:14:08.769Z,35.23
2019-02-17T11:16:38.477Z,48.60
2019-02-17T11:19:08.173Z,53.15
2019-02-17T11:21:37.852Z,46.48
2019-02-17T11:24:07.682Z,50.10
2019-02-17T11:26:37.356Z,41.40
2019-02-17T11:29:07.062Z,39.18
2019-02-17T11:31:36.917Z,39.65
2019-02-17T11:34:06.675Z,47.00
2019-02-17T11:36:36.443Z,44.50
2019-02-17T11:39:08.777Z,45.83
2019-02-17T11:41:38.505Z,37.98
2019-02-17T11:44:08.287Z,40.55
2019-02-17T11:46:38.051Z,45.67
2019-02-17T11:49:07.720Z,50.25
2019-02-17T11:51:37.438Z,45.95
2019-02-17T11:54:07.207Z,47.10
2019-02-17T11:56:36.950Z,43.95
2019-02-17T11:59:06.646Z,38.20
2019-02-17T12:01:36.388Z,50.08
2019-02-17T12:04:06.086Z,50.08
2019-02-17T12:06:35.753Z,51.25
2019-02-17T12:09:05.442Z,47.33
2019-02-17T12:11:35.131Z,44.27
2019-02-17T12:14:04.883Z,52.17
2019-02-17T12:16:36.961Z,48.00
2019-02-17T12:19:05.965Z,45.92
2019-02-17T12:21:46.241Z,46.13
2019-02-17T12:24:17.560Z,45.48
2019-02-17T12:26:51.941Z,43.63
2019-02-17T12:29:23.261Z,48.38
2019-02-17T12:31:53.207Z,42.85
2019-02-17T12:34:23.016Z,43.28
2019-02-17T12:36:52.786Z,43.30
2019-02-17T12:39:22.481Z,43.42
2019-02-17T12:41:52.174Z,47.62
2019-02-17T12:44:21.934Z,45.78
2019-02-17T12:46:51.687Z,42.45
2019-02-17T12:49:21.464Z,40.60
2019-02-17T12:51:51.226Z,41.83
2019-02-17T12:54:28.812Z,38.67
2019-02-17T12:56:52.366Z,39.98
2019-02-17T12:59:22.159Z,41.98
2019-02-17T13:01:52.033Z,50.10
2019-02-17T13:04:21.783Z,40.88
2019-02-17T13:06:51.716Z,55.00
2019-02-17T13:09:21.433Z,40.90
2019-02-17T13:11:51.206Z,55.80
2019-02-17T13:14:20.885Z,40.20
2019-02-17T13:16:50.575Z,43.75
2019-02-17T13:19:20.284Z,49.08
2019-02-17T13:21:49.972Z,44.13
2019-02-17T13:24:19.654Z,42.20
2019-02-17T13:26:49.408Z,42.98
2019-02-17T13:29:19.088Z,41.20
2019-02-17T13:31:48.783Z,38.48
2019-02-17T13:34:18.498Z,38.85
2019-02-17T13:36:48.260Z,35.40
2019-02-17T13:39:17.946Z,37.98
2019-02-17T13:41:47.710Z,38.85
2019-02-17T13:44:17.409Z,36.20
2019-02-17T13:46:47.128Z,30.82
2019-02-17T13:49:16.883Z,35.25
2019-02-17T13:51:46.562Z,32.17
2019-02-17T13:54:16.245Z,34.08
2019-02-17T13:56:45.945Z,38.02
2019-02-17T13:59:15.691Z,43.13
2019-02-17T14:01:45.395Z,38.00
2019-02-17T14:04:15.140Z,39.63
2019-02-17T14:06:44.838Z,36.98
2019-02-17T14:09:14.555Z,34.45
2019-02-17T14:11:44.337Z,42.20
2019-02-17T14:14:14.084Z,41.30
2019-02-17T14:16:43.785Z,46.35
2019-02-17T14:19:13.463Z,47.30
2019-02-17T14:21:43.224Z,38.00
2019-02-17T14:24:13.098Z,38.13
2019-02-17T14:26:42.775Z,35.98
2019-02-17T14:29:12.555Z,38.23
2019-02-17T14:31:42.305Z,41.25
2019-02-17T14:34:12.067Z,42.62
2019-02-17T14:36:41.752Z,47.55
2019-02-17T14:39:11.461Z,39.67
2019-02-17T14:41:41.203Z,59.63
2019-02-17T14:44:11.996Z,47.20
2019-02-17T14:46:41.735Z,45.83
2019-02-17T14:49:11.424Z,46.37
2019-02-17T14:51:41.122Z,46.40
2019-02-17T14:54:10.877Z,42.45
2019-02-17T14:56:40.576Z,42.78
2019-02-17T14:59:10.252Z,32.42
2019-02-17T15:01:39.947Z,43.60
2019-02-17T15:04:09.626Z,36.08
2019-02-17T15:06:39.438Z,39.42
2019-02-17T15:09:09.177Z,29.95
2019-02-17T15:11:39.245Z,33.70
2019-02-17T15:14:08.915Z,50.12
2019-02-17T15:16:38.612Z,40.58
2019-02-17T15:19:08.364Z,39.70
2019-02-17T15:21:38.069Z,37.40
2019-02-17T15:24:08.090Z,34.08
2019-02-17T15:26:37.979Z,34.73
2019-02-17T15:29:07.660Z,46.83
2019-02-17T15:31:37.352Z,37.65
2019-02-17T15:34:07.133Z,32.35
2019-02-17T15:36:36.812Z,28.85
2019-02-17T15:39:07.467Z,31.27
2019-02-17T15:41:37.274Z,30.05
2019-02-17T15:44:07.184Z,35.15
2019-02-17T15:46:36.939Z,27.50
2019-02-17T15:49:06.646Z,25.90
2019-02-17T15:51:36.433Z,26.00
2019-02-17T15:54:06.375Z,31.12
2019-02-17T15:56:36.342Z,28.30
2019-02-17T15:59:06.346Z,25.20
2019-02-17T16:01:36.263Z,29.00
2019-02-17T16:04:05.975Z,23.07
2019-02-17T16:06:35.754Z,19.40
2019-02-17T16:09:06.107Z,26.05
2019-02-17T16:11:35.865Z,21.75
2019-02-17T16:14:06.790Z,22.73
2019-02-17T16:16:36.830Z,21.95
2019-02-17T16:19:06.609Z,28.92
2019-02-17T16:21:57.491Z,20.40
2019-02-17T16:24:28.430Z,31.70
2019-02-17T16:26:58.133Z,23.42
2019-02-17T16:29:27.901Z,26.52
2019-02-17T16:31:57.679Z,22.87
2019-02-17T16:34:27.481Z,25.62
2019-02-17T16:36:57.239Z,25.35
2019-02-17T16:39:28.684Z,20.27
2019-02-17T16:41:58.458Z,22.17
2019-02-17T16:44:28.239Z,23.95
2019-02-17T16:46:58.018Z,29.55
2019-02-17T16:49:27.798Z,16.10
2019-02-17T16:51:57.628Z,24.65
2019-02-17T16:54:39.488Z,25.60
2019-02-17T16:57:09.266Z,30.17
2019-02-17T16:59:39.048Z,24.37
2019-02-17T17:02:10.250Z,28.50
2019-02-17T17:04:48.082Z,28.15
2019-02-17T17:07:11.449Z,24.12
2019-02-17T17:09:41.210Z,24.32
2019-02-17T17:12:12.088Z,22.52
2019-02-17T17:14:41.856Z,31.17
2019-02-17T17:17:11.657Z,18.10
2019-02-17T17:19:44.388Z,25.68
2019-02-17T17:22:14.180Z,23.98
2019-02-17T17:24:45.763Z,37.58
2019-02-17T17:27:15.636Z,32.23
2019-02-17T17:29:46.520Z,43.35
2019-02-17T17:32:16.643Z,33.13
2019-02-17T17:34:46.644Z,23.90
2019-02-17T17:37:16.428Z,27.45
2019-02-17T17:39:46.540Z,31.75
2019-02-17T17:42:16.309Z,25.62
2019-02-17T17:44:46.095Z,31.57
2019-02-17T17:47:18.240Z,28.90
2019-02-17T17:49:48.041Z,26.02
2019-02-17T17:52:17.812Z,34.78
2019-02-17T17:54:47.612Z,27.42
2019-02-17T17:57:17.386Z,28.92
2019-02-17T17:59:48.784Z,21.68
2019-02-17T18:02:18.563Z,33.50
2019-02-17T18:04:48.362Z,29.63
2019-02-17T18:07:19.792Z,131.22
2019-02-17T18:09:49.576Z,40.45
2019-02-17T18:12:19.357Z,30.48
2019-02-17T18:14:49.129Z,37.50
2019-02-17T18:17:18.948Z,35.63
2019-02-17T18:19:50.267Z,31.42
2019-02-17T18:22:21.741Z,37.75
2019-02-17T18:24:52.519Z,33.20
2019-02-17T18:27:22.324Z,30.60
2019-02-17T18:29:53.234Z,27.65
2019-02-17T18:32:23.183Z,31.37
2019-02-17T18:34:52.923Z,34.13
2019-02-17T18:37:24.653Z,32.78
2019-02-17T18:39:54.432Z,26.17
2019-02-17T18:42:25.094Z,30.00
2019-02-17T18:44:55.112Z,31.05
2019-02-17T18:47:27.697Z,28.30
2019-02-17T18:50:02.033Z,32.53
2019-02-17T18:52:33.456Z,32.17
2019-02-17T18:55:04.932Z,34.23
2019-02-17T18:57:34.644Z,30.37
2019-02-17T19:00:13.903Z,33.83
2019-02-17T19:02:43.725Z,34.95
2019-02-17T19:05:13.484Z,32.75
2019-02-17T19:07:43.285Z,42.75
2019-02-17T19:10:14.499Z,34.38
2019-02-17T19:12:44.946Z,30.97
2019-02-17T19:15:17.573Z,34.67
2019-02-17T19:17:50.389Z,43.60
2019-02-17T19:20:25.351Z,32.20
2019-02-17T19:22:56.772Z,36.58
2019-02-17T19:25:26.556Z,47.00
2019-02-17T19:27:58.259Z,38.35
2019-02-17T19:30:30.369Z,29.48
2019-02-17T19:33:00.248Z,35.43
2019-02-17T19:35:41.010Z,32.23
2019-02-17T19:38:06.399Z,31.50
2019-02-17T19:40:38.019Z,24.98
2019-02-17T19:43:10.318Z,29.35
2019-02-17T19:45:41.904Z,27.80
2019-02-17T19:48:13.063Z,30.00
2019-02-17T19:50:46.791Z,29.82
2019-02-17T19:53:20.555Z,31.85
2019-02-17T19:55:52.706Z,30.27
2019-02-17T19:58:23.971Z,23.57
2019-02-17T20:00:57.288Z,26.75
2019-02-17T20:03:28.691Z,25.05
2019-02-17T20:06:02.040Z,29.52
2019-02-17T20:08:31.816Z,22.73
2019-02-17T20:11:02.764Z,25.85
2019-02-17T20:13:35.030Z,25.60
2019-02-17T20:16:06.777Z,28.85
2019-02-17T20:18:41.305Z,25.45
2019-02-17T20:21:11.037Z,27.05
2019-02-17T20:23:45.574Z,24.10
2019-02-17T20:26:16.251Z,29.55
2019-02-17T20:28:46.047Z,23.42
2019-02-17T20:31:17.553Z,24.47
2019-02-17T20:33:47.413Z,22.30
2019-02-17T20:36:17.187Z,21.60
2019-02-17T20:38:50.960Z,25.60
2019-02-17T20:41:22.917Z,22.85
2019-02-17T20:43:55.541Z,19.80
2019-02-17T20:46:28.197Z,27.73
2019-02-17T20:48:59.296Z,24.40
2019-02-17T20:51:29.728Z,22.63
2019-02-17T20:53:59.890Z,21.93
2019-02-17T20:56:31.308Z,26.07
2019-02-17T20:59:01.749Z,21.82
2019-02-17T21:01:32.831Z,23.32
2019-02-17T21:04:02.643Z,31.20
2019-02-17T21:06:32.419Z,32.15
2019-02-17T21:09:04.442Z,25.55
2019-02-17T21:11:34.204Z,53.25
2019-02-17T21:14:03.972Z,37.15
2019-02-17T21:16:33.760Z,35.30
2019-02-17T21:19:03.537Z,40.45
2019-02-17T21:21:34.980Z,45.85
2019-02-17T21:24:05.907Z,43.63
2019-02-17T21:26:35.705Z,51.50
2019-02-17T21:29:07.865Z,40.28
2019-02-17T21:31:37.680Z,47.43
2019-02-17T21:34:09.064Z,49.73
2019-02-17T21:36:38.855Z,53.73
2019-02-17T21:39:08.633Z,51.28
2019-02-17T21:41:38.440Z,55.25
2019-02-17T21:44:08.617Z,71.82
2019-02-17T21:46:39.147Z,49.63
2019-02-17T21:49:08.928Z,50.73
2019-02-17T21:51:38.693Z,55.70
2019-02-17T21:54:08.475Z,49.05
2019-02-17T21:56:38.409Z,47.95
2019-02-17T21:59:08.247Z,56.00
2019-02-17T22:01:38.001Z,57.45
2019-02-17T22:04:07.707Z,53.25
2019-02-17T22:06:37.466Z,52.60
2019-02-17T22:09:07.238Z,50.65
2019-02-17T22:11:37.003Z,56.92
2019-02-17T22:14:06.680Z,60.08
2019-02-17T22:16:36.376Z,61.95
2019-02-17T22:19:06.051Z,53.75
2019-02-17T22:21:35.825Z,53.65
2019-02-17T22:24:05.576Z,56.35
2019-02-17T22:26:35.345Z,52.08
2019-02-17T22:29:05.031Z,59.63
2019-02-17T22:31:34.724Z,53.10
2019-02-17T22:34:04.419Z,51.13
2019-02-17T22:36:43.297Z,48.63
2019-02-17T22:39:06.120Z,53.30
2019-02-17T22:41:35.956Z,57.70
2019-02-17T22:44:05.660Z,58.28
2019-02-17T22:46:35.395Z,53.90
2019-02-17T22:49:05.098Z,48.33
2019-02-17T22:51:34.773Z,49.33
2019-02-17T22:54:04.469Z,57.83
2019-02-17T22:56:34.399Z,55.23
2019-02-17T22:59:04.109Z,50.45
2019-02-17T23:01:34.022Z,53.48
2019-02-17T23:04:03.794Z,44.03
2019-02-17T23:06:33.540Z,48.28
2019-02-17T23:09:04.208Z,43.85
2019-02-17T23:11:33.885Z,48.30
2019-02-17T23:14:04.338Z,42.00
2019-02-17T23:16:34.227Z,44.40
2019-02-17T23:19:03.979Z,42.33
2019-02-17T23:21:33.752Z,41.40
2019-02-17T23:24:03.495Z,40.63
2019-02-17T23:26:33.196Z,41.05
2019-02-17T23:29:02.961Z,43.10
2019-02-17T23:31:32.656Z,38.60
2019-02-17T23:34:02.354Z,38.20
2019-02-17T23:36:32.097Z,38.95
2019-02-17T23:39:01.846Z,40.00
2019-02-17T23:41:32.618Z,35.92
2019-02-17T23:44:02.380Z,33.63
2019-02-17T23:46:32.053Z,37.15
2019-02-17T23:49:01.739Z,34.53
2019-02-17T23:51:31.416Z,42.88
2019-02-17T23:54:01.110Z,40.28
2019-02-17T23:56:30.856Z,38.60
2019-02-17T23:59:00.628Z,35.75
